Bellevue, Washington
Current Conditions -  °F | °C
As of 4:53 AM on Thursday 27 Nov 2014 (Local Time) from KBFI Reporting Station
Overcast Overcast  
Wind Chill: 56°   Ceiling: 3400
Heat Index: 56°   Visibility: 10mi
Dew Point: 47°   Wind: 10mph
Humidity: 72%   Direction: 180°S
Pressure: 29.85"   Gusts: 18mph
Location:  47.61°N, 122.18°W
Report Text: KBFI 271253Z 18009G16KT 10SM OVC034 13/08 A2985 RMK AO2 SLP108 T01330083
Loading
Personal Weather Stations






























Interactive Weather Map New forecast layout! Learn more

10-Day Weather Forecast

Advertisements
Track Severe Weather on mobile